sensor_id;sensor_type;location;lat;lon;timestamp;temperature;humidity
75786;DHT22;64402;44.708;37.644;2023-02-23T00:01:14;3.42;77.40
75786;DHT22;64402;44.708;37.644;2023-02-23T00:03:40;3.10;80.27
75786;DHT22;64402;44.708;37.644;2023-02-23T00:06:07;2.95;82.19
75786;DHT22;64402;44.708;37.644;2023-02-23T00:08:35;2.93;84.40
75786;DHT22;64402;44.708;37.644;2023-02-23T00:11:07;2.93;83.36
75786;DHT22;64402;44.708;37.644;2023-02-23T00:13:35;3.01;84.23
75786;DHT22;64402;44.708;37.644;2023-02-23T00:16:09;3.09;84.70
75786;DHT22;64402;44.708;37.644;2023-02-23T00:18:37;3.06;83.18
75786;DHT22;64402;44.708;37.644;2023-02-23T00:21:24;3.06;83.71
75786;DHT22;64402;44.708;37.644;2023-02-23T00:23:53;3.04;82.79
75786;DHT22;64402;44.708;37.644;2023-02-23T00:26:21;2.94;80.59
75786;DHT22;64402;44.708;37.644;2023-02-23T00:28:48;2.82;83.58
75786;DHT22;64402;44.708;37.644;2023-02-23T00:31:16;2.74;83.75
75786;DHT22;64402;44.708;37.644;2023-02-23T00:33:42;2.72;82.86
75786;DHT22;64402;44.708;37.644;2023-02-23T00:36:11;2.71;84.64
75786;DHT22;64402;44.708;37.644;2023-02-23T00:38:39;2.69;81.84
75786;DHT22;64402;44.708;37.644;2023-02-23T00:41:10;2.70;82.82
75786;DHT22;64402;44.708;37.644;2023-02-23T00:43:39;2.68;82.32
75786;DHT22;64402;44.708;37.644;2023-02-23T00:46:18;2.65;83.42
75786;DHT22;64402;44.708;37.644;2023-02-23T00:48:47;2.53;83.17
75786;DHT22;64402;44.708;37.644;2023-02-23T00:51:15;2.44;82.84
75786;DHT22;64402;44.708;37.644;2023-02-23T00:53:41;2.38;82.79
75786;DHT22;64402;44.708;37.644;2023-02-23T00:56:10;2.39;82.90
75786;DHT22;64402;44.708;37.644;2023-02-23T00:58:36;2.45;83.95
75786;DHT22;64402;44.708;37.644;2023-02-23T01:01:11;2.52;80.73
75786;DHT22;64402;44.708;37.644;2023-02-23T01:03:39;2.60;82.10
75786;DHT22;64402;44.708;37.644;2023-02-23T01:06:07;2.71;82.29
75786;DHT22;64402;44.708;37.644;2023-02-23T01:08:35;2.75;82.68
75786;DHT22;64402;44.708;37.644;2023-02-23T01:11:13;2.79;82.43
75786;DHT22;64402;44.708;37.644;2023-02-23T01:13:41;2.80;83.22
75786;DHT22;64402;44.708;37.644;2023-02-23T01:16:13;2.79;82.10
75786;DHT22;64402;44.708;37.644;2023-02-23T01:18:40;2.78;82.13
75786;DHT22;64402;44.708;37.644;2023-02-23T01:21:37;2.81;82.46
75786;DHT22;64402;44.708;37.644;2023-02-23T01:24:03;2.89;80.73
75786;DHT22;64402;44.708;37.644;2023-02-23T01:26:36;3.04;81.36
75786;DHT22;64402;44.708;37.644;2023-02-23T01:29:12;3.23;78.71
75786;DHT22;64402;44.708;37.644;2023-02-23T01:31:44;3.39;77.43
75786;DHT22;64402;44.708;37.644;2023-02-23T01:34:12;3.52;78.81
75786;DHT22;64402;44.708;37.644;2023-02-23T01:36:44;3.62;78.07
75786;DHT22;64402;44.708;37.644;2023-02-23T01:39:14;3.76;76.75
75786;DHT22;64402;44.708;37.644;2023-02-23T01:41:40;3.84;76.44
75786;DHT22;64402;44.708;37.644;2023-02-23T01:46:40;3.95;72.91
75786;DHT22;64402;44.708;37.644;2023-02-23T01:49:17;4.02;75.71
75786;DHT22;64402;44.708;37.644;2023-02-23T01:52:08;4.06;76.89
75786;DHT22;64402;44.708;37.644;2023-02-23T01:54:40;4.09;77.03
75786;DHT22;64402;44.708;37.644;2023-02-23T01:57:13;4.07;76.66
75786;DHT22;64402;44.708;37.644;2023-02-23T01:59:42;4.09;76.75
75786;DHT22;64402;44.708;37.644;2023-02-23T02:02:09;4.08;77.27
75786;DHT22;64402;44.708;37.644;2023-02-23T02:04:37;3.97;75.81
75786;DHT22;64402;44.708;37.644;2023-02-23T02:07:22;3.94;76.48
75786;DHT22;64402;44.708;37.644;2023-02-23T02:09:51;3.87;75.62
75786;DHT22;64402;44.708;37.644;2023-02-23T02:12:43;3.72;75.10
75786;DHT22;64402;44.708;37.644;2023-02-23T02:15:10;3.56;76.59
75786;DHT22;64402;44.708;37.644;2023-02-23T02:32:43;3.10;75.18
75786;DHT22;64402;44.708;37.644;2023-02-23T02:38:30;2.71;70.13
75786;DHT22;64402;44.708;37.644;2023-02-23T02:41:02;2.55;72.36
75786;DHT22;64402;44.708;37.644;2023-02-23T02:43:59;2.40;71.56
75786;DHT22;64402;44.708;37.644;2023-02-23T02:46:31;2.30;71.65
75786;DHT22;64402;44.708;37.644;2023-02-23T02:49:10;2.25;71.61
75786;DHT22;64402;44.708;37.644;2023-02-23T02:51:57;2.15;71.44
75786;DHT22;64402;44.708;37.644;2023-02-23T02:54:45;2.09;71.34
75786;DHT22;64402;44.708;37.644;2023-02-23T02:57:12;2.07;72.00
75786;DHT22;64402;44.708;37.644;2023-02-23T02:59:44;1.98;72.15
75786;DHT22;64402;44.708;37.644;2023-02-23T03:02:31;1.94;73.11
75786;DHT22;64402;44.708;37.644;2023-02-23T03:05:19;1.83;74.26
75786;DHT22;64402;44.708;37.644;2023-02-23T03:08:13;1.76;75.12
75786;DHT22;64402;44.708;37.644;2023-02-23T03:11:05;1.68;77.37
75786;DHT22;64402;44.708;37.644;2023-02-23T03:16:59;1.53;79.11
75786;DHT22;64402;44.708;37.644;2023-02-23T03:23:04;1.41;79.31
75786;DHT22;64402;44.708;37.644;2023-02-23T03:26:12;1.37;81.54
75786;DHT22;64402;44.708;37.644;2023-02-23T03:29:03;1.33;81.71
75786;DHT22;64402;44.708;37.644;2023-02-23T03:34:46;1.28;83.58
75786;DHT22;64402;44.708;37.644;2023-02-23T03:37:44;1.22;82.58
75786;DHT22;64402;44.708;37.644;2023-02-23T03:40:36;1.19;83.65
75786;DHT22;64402;44.708;37.644;2023-02-23T03:43:26;1.13;81.80
75786;DHT22;64402;44.708;37.644;2023-02-23T03:46:13;1.09;83.56
75786;DHT22;64402;44.708;37.644;2023-02-23T03:49:03;1.06;83.05
75786;DHT22;64402;44.708;37.644;2023-02-23T03:51:53;1.04;83.17
75786;DHT22;64402;44.708;37.644;2023-02-23T03:54:44;1.02;83.54
75786;DHT22;64402;44.708;37.644;2023-02-23T03:57:33;0.95;82.92
75786;DHT22;64402;44.708;37.644;2023-02-23T04:00:24;0.92;81.27
75786;DHT22;64402;44.708;37.644;2023-02-23T04:03:12;0.86;82.38
75786;DHT22;64402;44.708;37.644;2023-02-23T04:05:59;0.82;80.28
75786;DHT22;64402;44.708;37.644;2023-02-23T04:08:45;0.78;79.41
75786;DHT22;64402;44.708;37.644;2023-02-23T04:11:39;0.74;78.94
75786;DHT22;64402;44.708;37.644;2023-02-23T04:14:35;0.67;78.19
75786;DHT22;64402;44.708;37.644;2023-02-23T04:17:03;0.66;77.71
75786;DHT22;64402;44.708;37.644;2023-02-23T04:19:32;0.61;77.02
75786;DHT22;64402;44.708;37.644;2023-02-23T04:21:58;0.61;75.93
75786;DHT22;64402;44.708;37.644;2023-02-23T04:24:24;0.60;75.19
75786;DHT22;64402;44.708;37.644;2023-02-23T04:26:50;0.60;74.99
75786;DHT22;64402;44.708;37.644;2023-02-23T04:29:16;0.58;75.41
75786;DHT22;64402;44.708;37.644;2023-02-23T04:31:42;0.59;76.90
75786;DHT22;64402;44.708;37.644;2023-02-23T04:34:09;0.60;76.08
75786;DHT22;64402;44.708;37.644;2023-02-23T04:36:35;0.58;76.08
75786;DHT22;64402;44.708;37.644;2023-02-23T04:39:01;0.57;75.46
75786;DHT22;64402;44.708;37.644;2023-02-23T04:41:27;0.55;76.50
75786;DHT22;64402;44.708;37.644;2023-02-23T04:43:53;0.58;74.09
75786;DHT22;64402;44.708;37.644;2023-02-23T04:46:19;0.59;73.79
75786;DHT22;64402;44.708;37.644;2023-02-23T04:48:45;0.61;74.46
75786;DHT22;64402;44.708;37.644;2023-02-23T04:51:12;0.64;75.12
75786;DHT22;64402;44.708;37.644;2023-02-23T04:53:38;0.62;73.01
75786;DHT22;64402;44.708;37.644;2023-02-23T04:56:04;0.64;71.61
75786;DHT22;64402;44.708;37.644;2023-02-23T04:58:30;0.64;71.26
75786;DHT22;64402;44.708;37.644;2023-02-23T05:01:04;0.69;72.70
75786;DHT22;64402;44.708;37.644;2023-02-23T05:03:31;0.71;72.06
75786;DHT22;64402;44.708;37.644;2023-02-23T05:05:57;0.74;70.98
75786;DHT22;64402;44.708;37.644;2023-02-23T05:08:23;0.76;71.26
75786;DHT22;64402;44.708;37.644;2023-02-23T05:10:50;0.77;71.34
75786;DHT22;64402;44.708;37.644;2023-02-23T05:13:16;0.79;70.62
75786;DHT22;64402;44.708;37.644;2023-02-23T05:15:42;0.78;70.21
75786;DHT22;64402;44.708;37.644;2023-02-23T05:18:08;0.81;70.13
75786;DHT22;64402;44.708;37.644;2023-02-23T05:20:35;0.86;70.53
75786;DHT22;64402;44.708;37.644;2023-02-23T05:23:01;0.86;69.79
75786;DHT22;64402;44.708;37.644;2023-02-23T05:25:27;0.88;70.44
75786;DHT22;64402;44.708;37.644;2023-02-23T05:27:53;0.90;69.74
75786;DHT22;64402;44.708;37.644;2023-02-23T05:30:19;0.94;71.06
75786;DHT22;64402;44.708;37.644;2023-02-23T05:32:45;0.99;70.49
75786;DHT22;64402;44.708;37.644;2023-02-23T05:35:11;1.03;69.90
75786;DHT22;64402;44.708;37.644;2023-02-23T05:37:37;1.05;70.47
75786;DHT22;64402;44.708;37.644;2023-02-23T05:40:04;1.07;70.20
75786;DHT22;64402;44.708;37.644;2023-02-23T05:42:30;1.08;69.16
75786;DHT22;64402;44.708;37.644;2023-02-23T05:44:56;1.09;69.45
75786;DHT22;64402;44.708;37.644;2023-02-23T05:47:22;1.16;69.39
75786;DHT22;64402;44.708;37.644;2023-02-23T05:49:48;1.17;69.10
75786;DHT22;64402;44.708;37.644;2023-02-23T05:52:14;1.21;69.63
75786;DHT22;64402;44.708;37.644;2023-02-23T05:54:41;1.26;70.45
75786;DHT22;64402;44.708;37.644;2023-02-23T05:57:07;1.34;69.49
75786;DHT22;64402;44.708;37.644;2023-02-23T05:59:33;1.45;69.93
75786;DHT22;64402;44.708;37.644;2023-02-23T06:01:59;1.53;69.84
75786;DHT22;64402;44.708;37.644;2023-02-23T06:04:25;1.65;69.34
75786;DHT22;64402;44.708;37.644;2023-02-23T06:06:51;1.72;69.13
75786;DHT22;64402;44.708;37.644;2023-02-23T06:09:17;1.83;69.28
75786;DHT22;64402;44.708;37.644;2023-02-23T06:11:43;1.97;69.22
75786;DHT22;64402;44.708;37.644;2023-02-23T06:14:10;2.17;68.58
75786;DHT22;64402;44.708;37.644;2023-02-23T06:16:36;2.39;69.33
75786;DHT22;64402;44.708;37.644;2023-02-23T06:19:02;2.45;67.98
75786;DHT22;64402;44.708;37.644;2023-02-23T06:21:28;2.53;68.62
75786;DHT22;64402;44.708;37.644;2023-02-23T06:23:55;2.54;71.43
75786;DHT22;64402;44.708;37.644;2023-02-23T06:26:25;2.43;72.15
75786;DHT22;64402;44.708;37.644;2023-02-23T06:28:52;2.23;73.00
75786;DHT22;64402;44.708;37.644;2023-02-23T06:31:18;2.11;74.09
75786;DHT22;64402;44.708;37.644;2023-02-23T06:33:44;1.99;73.88
75786;DHT22;64402;44.708;37.644;2023-02-23T06:36:10;2.07;73.74
75786;DHT22;64402;44.708;37.644;2023-02-23T06:38:36;2.19;73.59
75786;DHT22;64402;44.708;37.644;2023-02-23T06:41:10;2.44;72.44
75786;DHT22;64402;44.708;37.644;2023-02-23T06:43:37;2.68;72.83
75786;DHT22;64402;44.708;37.644;2023-02-23T06:46:03;3.00;71.17
75786;DHT22;64402;44.708;37.644;2023-02-23T06:48:29;3.15;68.89
75786;DHT22;64402;44.708;37.644;2023-02-23T06:50:58;3.32;68.39
75786;DHT22;64402;44.708;37.644;2023-02-23T06:53:24;3.17;69.78
75786;DHT22;64402;44.708;37.644;2023-02-23T06:55:50;3.02;68.72
75786;DHT22;64402;44.708;37.644;2023-02-23T06:58:16;2.91;69.68
75786;DHT22;64402;44.708;37.644;2023-02-23T07:00:42;2.73;68.59
75786;DHT22;64402;44.708;37.644;2023-02-23T07:03:08;2.51;70.68
75786;DHT22;64402;44.708;37.644;2023-02-23T07:05:36;2.50;70.86
75786;DHT22;64402;44.708;37.644;2023-02-23T07:08:02;2.38;71.42
75786;DHT22;64402;44.708;37.644;2023-02-23T07:10:29;2.46;71.25
75786;DHT22;64402;44.708;37.644;2023-02-23T07:12:56;2.52;70.35
75786;DHT22;64402;44.708;37.644;2023-02-23T07:15:24;2.62;69.54
75786;DHT22;64402;44.708;37.644;2023-02-23T07:17:50;2.65;68.93
75786;DHT22;64402;44.708;37.644;2023-02-23T07:20:18;2.46;68.23
75786;DHT22;64402;44.708;37.644;2023-02-23T07:22:44;2.47;68.95
75786;DHT22;64402;44.708;37.644;2023-02-23T07:25:11;2.60;67.93
75786;DHT22;64402;44.708;37.644;2023-02-23T07:27:37;3.00;66.78
75786;DHT22;64402;44.708;37.644;2023-02-23T07:30:04;3.55;64.57
75786;DHT22;64402;44.708;37.644;2023-02-23T07:32:30;3.34;65.40
75786;DHT22;64402;44.708;37.644;2023-02-23T07:34:56;3.41;64.83
75786;DHT22;64402;44.708;37.644;2023-02-23T07:37:22;4.52;62.11
75786;DHT22;64402;44.708;37.644;2023-02-23T07:39:48;5.66;58.38
75786;DHT22;64402;44.708;37.644;2023-02-23T07:42:15;5.30;58.80
75786;DHT22;64402;44.708;37.644;2023-02-23T07:44:41;5.17;59.50
75786;DHT22;64402;44.708;37.644;2023-02-23T07:47:07;4.91;59.96
75786;DHT22;64402;44.708;37.644;2023-02-23T07:49:33;4.67;60.06
75786;DHT22;64402;44.708;37.644;2023-02-23T07:51:59;4.32;62.11
75786;DHT22;64402;44.708;37.644;2023-02-23T07:54:25;3.86;63.39
75786;DHT22;64402;44.708;37.644;2023-02-23T07:56:51;3.55;64.53
75786;DHT22;64402;44.708;37.644;2023-02-23T07:59:18;3.53;65.75
75786;DHT22;64402;44.708;37.644;2023-02-23T08:01:45;3.40;65.90
75786;DHT22;64402;44.708;37.644;2023-02-23T08:04:11;3.47;64.14
75786;DHT22;64402;44.708;37.644;2023-02-23T08:06:38;3.44;64.42
75786;DHT22;64402;44.708;37.644;2023-02-23T08:09:04;3.36;64.50
75786;DHT22;64402;44.708;37.644;2023-02-23T08:11:30;3.31;65.24
75786;DHT22;64402;44.708;37.644;2023-02-23T08:13:57;3.30;65.66
75786;DHT22;64402;44.708;37.644;2023-02-23T08:16:29;3.30;64.95
75786;DHT22;64402;44.708;37.644;2023-02-23T08:18:56;3.05;65.37
75786;DHT22;64402;44.708;37.644;2023-02-23T08:21:24;2.90;66.74
75786;DHT22;64402;44.708;37.644;2023-02-23T08:23:50;2.75;66.31
75786;DHT22;64402;44.708;37.644;2023-02-23T08:26:16;2.70;66.87
75786;DHT22;64402;44.708;37.644;2023-02-23T08:28:42;2.60;66.40
75786;DHT22;64402;44.708;37.644;2023-02-23T08:31:11;2.57;66.84
75786;DHT22;64402;44.708;37.644;2023-02-23T08:33:38;2.50;68.06
75786;DHT22;64402;44.708;37.644;2023-02-23T08:36:06;2.51;67.20
75786;DHT22;64402;44.708;37.644;2023-02-23T08:38:32;2.45;67.40
75786;DHT22;64402;44.708;37.644;2023-02-23T08:41:02;2.41;66.71
75786;DHT22;64402;44.708;37.644;2023-02-23T08:43:28;2.34;68.10
75786;DHT22;64402;44.708;37.644;2023-02-23T08:45:54;2.47;67.05
75786;DHT22;64402;44.708;37.644;2023-02-23T08:48:20;2.47;67.62
75786;DHT22;64402;44.708;37.644;2023-02-23T08:50:56;2.49;67.67
75786;DHT22;64402;44.708;37.644;2023-02-23T08:53:22;2.54;66.24
75786;DHT22;64402;44.708;37.644;2023-02-23T08:56:01;2.53;67.46
75786;DHT22;64402;44.708;37.644;2023-02-23T08:58:28;2.66;67.77
75786;DHT22;64402;44.708;37.644;2023-02-23T09:00:55;2.88;66.56
75786;DHT22;64402;44.708;37.644;2023-02-23T09:03:22;3.05;64.90
75786;DHT22;64402;44.708;37.644;2023-02-23T09:05:51;3.08;65.50
75786;DHT22;64402;44.708;37.644;2023-02-23T09:08:17;3.08;63.83
75786;DHT22;64402;44.708;37.644;2023-02-23T09:10:44;3.15;63.85
75786;DHT22;64402;44.708;37.644;2023-02-23T09:13:11;3.25;63.55
75786;DHT22;64402;44.708;37.644;2023-02-23T09:15:41;3.16;64.05
75786;DHT22;64402;44.708;37.644;2023-02-23T09:18:10;3.11;63.87
75786;DHT22;64402;44.708;37.644;2023-02-23T09:20:41;2.95;64.39
75786;DHT22;64402;44.708;37.644;2023-02-23T09:23:07;2.78;65.37
75786;DHT22;64402;44.708;37.644;2023-02-23T09:25:38;2.74;65.99
75786;DHT22;64402;44.708;37.644;2023-02-23T09:28:10;2.94;64.62
75786;DHT22;64402;44.708;37.644;2023-02-23T09:30:37;3.02;64.49
75786;DHT22;64402;44.708;37.644;2023-02-23T09:33:03;3.36;64.47
75786;DHT22;64402;44.708;37.644;2023-02-23T09:35:29;3.78;62.16
75786;DHT22;64402;44.708;37.644;2023-02-23T09:37:55;4.14;60.72
75786;DHT22;64402;44.708;37.644;2023-02-23T09:40:28;4.63;59.93
75786;DHT22;64402;44.708;37.644;2023-02-23T09:45:51;4.76;58.16
75786;DHT22;64402;44.708;37.644;2023-02-23T09:48:22;4.35;58.58
75786;DHT22;64402;44.708;37.644;2023-02-23T09:50:55;4.34;60.67
75786;DHT22;64402;44.708;37.644;2023-02-23T09:55:55;7.52;49.97
75786;DHT22;64402;44.708;37.644;2023-02-23T09:58:25;10.16;43.73
75786;DHT22;64402;44.708;37.644;2023-02-23T10:03:49;9.47;42.15
75786;DHT22;64402;44.708;37.644;2023-02-23T10:06:17;8.17;46.40
75786;DHT22;64402;44.708;37.644;2023-02-23T10:09:05;7.26;48.63
75786;DHT22;64402;44.708;37.644;2023-02-23T10:17:31;5.42;53.97
75786;DHT22;64402;44.708;37.644;2023-02-23T10:23:11;4.67;55.05
75786;DHT22;64402;44.708;37.644;2023-02-23T10:25:43;4.56;56.92
75786;DHT22;64402;44.708;37.644;2023-02-23T10:28:15;4.82;55.56
75786;DHT22;64402;44.708;37.644;2023-02-23T10:30:42;5.10;54.69
75786;DHT22;64402;44.708;37.644;2023-02-23T10:35:42;5.56;52.65
75786;DHT22;64402;44.708;37.644;2023-02-23T10:38:14;5.80;50.63
75786;DHT22;64402;44.708;37.644;2023-02-23T10:40:43;9.48;43.60
75786;DHT22;64402;44.708;37.644;2023-02-23T10:43:11;10.93;36.53
75786;DHT22;64402;44.708;37.644;2023-02-23T10:45:50;12.32;36.40
75786;DHT22;64402;44.708;37.644;2023-02-23T10:48:22;15.36;29.79
75786;DHT22;64402;44.708;37.644;2023-02-23T10:50:51;13.88;31.38
75786;DHT22;64402;44.708;37.644;2023-02-23T10:53:22;11.25;36.70
75786;DHT22;64402;44.708;37.644;2023-02-23T10:56:07;9.20;42.51
75786;DHT22;64402;44.708;37.644;2023-02-23T10:58:44;10.04;43.56
75786;DHT22;64402;44.708;37.644;2023-02-23T11:04:11;11.54;35.49
75786;DHT22;64402;44.708;37.644;2023-02-23T11:06:38;10.44;39.20
75786;DHT22;64402;44.708;37.644;2023-02-23T11:11:58;10.52;39.54
75786;DHT22;64402;44.708;37.644;2023-02-23T11:14:26;10.25;38.30
75786;DHT22;64402;44.708;37.644;2023-02-23T11:16:56;11.51;38.73
75786;DHT22;64402;44.708;37.644;2023-02-23T11:19:35;12.31;32.50
75786;DHT22;64402;44.708;37.644;2023-02-23T11:22:05;11.69;34.98
75786;DHT22;64402;44.708;37.644;2023-02-23T11:24:34;14.72;33.57
75786;DHT22;64402;44.708;37.644;2023-02-23T11:27:15;16.18;28.00
75786;DHT22;64402;44.708;37.644;2023-02-23T11:29:45;13.52;32.86
75786;DHT22;64402;44.708;37.644;2023-02-23T11:32:48;12.07;36.09
75786;DHT22;64402;44.708;37.644;2023-02-23T11:37:49;14.38;30.39
75786;DHT22;64402;44.708;37.644;2023-02-23T11:40:22;15.09;30.31
75786;DHT22;64402;44.708;37.644;2023-02-23T11:42:56;15.70;26.71
75786;DHT22;64402;44.708;37.644;2023-02-23T11:45:26;15.89;26.08
75786;DHT22;64402;44.708;37.644;2023-02-23T11:47:55;16.72;26.26
75786;DHT22;64402;44.708;37.644;2023-02-23T11:50:33;19.06;22.63
75786;DHT22;64402;44.708;37.644;2023-02-23T11:53:04;20.18;21.76
75786;DHT22;64402;44.708;37.644;2023-02-23T11:55:32;20.03;22.77
75786;DHT22;64402;44.708;37.644;2023-02-23T11:58:25;19.39;20.66
75786;DHT22;64402;44.708;37.644;2023-02-23T12:01:02;19.29;23.13
75786;DHT22;64402;44.708;37.644;2023-02-23T12:03:31;19.32;23.84
75786;DHT22;64402;44.708;37.644;2023-02-23T12:05:58;19.65;23.52
75786;DHT22;64402;44.708;37.644;2023-02-23T12:08:39;20.17;20.44
75786;DHT22;64402;44.708;37.644;2023-02-23T12:11:15;21.14;19.56
75786;DHT22;64402;44.708;37.644;2023-02-23T12:13:46;20.59;20.40
75786;DHT22;64402;44.708;37.644;2023-02-23T12:16:24;20.19;19.88
75786;DHT22;64402;44.708;37.644;2023-02-23T12:27:03;13.03;31.03
75786;DHT22;64402;44.708;37.644;2023-02-23T12:35:17;18.46;21.83
75786;DHT22;64402;44.708;37.644;2023-02-23T12:37:50;15.81;26.73
75786;DHT22;64402;44.708;37.644;2023-02-23T12:40:26;13.07;29.86
75786;DHT22;64402;44.708;37.644;2023-02-23T12:48:30;16.30;23.54
75786;DHT22;64402;44.708;37.644;2023-02-23T12:51:05;17.14;23.05
75786;DHT22;64402;44.708;37.644;2023-02-23T12:53:38;17.51;23.68
75786;DHT22;64402;44.708;37.644;2023-02-23T12:59:31;17.76;21.48
75786;DHT22;64402;44.708;37.644;2023-02-23T13:02:11;18.17;21.22
75786;DHT22;64402;44.708;37.644;2023-02-23T13:12:55;18.30;18.15
75786;DHT22;64402;44.708;37.644;2023-02-23T13:15:26;18.54;20.92
75786;DHT22;64402;44.708;37.644;2023-02-23T13:20:49;17.89;21.18
75786;DHT22;64402;44.708;37.644;2023-02-23T13:31:25;17.75;23.32
75786;DHT22;64402;44.708;37.644;2023-02-23T13:33:54;17.47;21.48
75786;DHT22;64402;44.708;37.644;2023-02-23T13:36:21;17.73;22.86
75786;DHT22;64402;44.708;37.644;2023-02-23T13:44:27;16.89;22.95
75786;DHT22;64402;44.708;37.644;2023-02-23T13:47:05;16.91;21.12
75786;DHT22;64402;44.708;37.644;2023-02-23T13:49:41;16.56;21.45
75786;DHT22;64402;44.708;37.644;2023-02-23T13:52:33;16.57;22.43
75786;DHT22;64402;44.708;37.644;2023-02-23T13:58:04;16.49;22.86
75786;DHT22;64402;44.708;37.644;2023-02-23T14:00:31;16.27;22.69
75786;DHT22;64402;44.708;37.644;2023-02-23T14:03:06;15.56;22.72
75786;DHT22;64402;44.708;37.644;2023-02-23T14:05:40;15.25;21.82
75786;DHT22;64402;44.708;37.644;2023-02-23T14:08:07;15.07;24.33
75786;DHT22;64402;44.708;37.644;2023-02-23T14:10:39;14.17;24.24
75786;DHT22;64402;44.708;37.644;2023-02-23T14:15:40;13.56;26.62
75786;DHT22;64402;44.708;37.644;2023-02-23T14:20:53;12.56;28.24
75786;DHT22;64402;44.708;37.644;2023-02-23T14:25:52;11.81;29.97
75786;DHT22;64402;44.708;37.644;2023-02-23T14:28:36;11.53;28.70
75786;DHT22;64402;44.708;37.644;2023-02-23T14:33:37;10.45;31.30
75786;DHT22;64402;44.708;37.644;2023-02-23T14:38:50;10.23;32.23
75786;DHT22;64402;44.708;37.644;2023-02-23T14:41:29;9.55;34.38
75786;DHT22;64402;44.708;37.644;2023-02-23T14:43:59;8.87;35.81
75786;DHT22;64402;44.708;37.644;2023-02-23T14:46:31;7.65;38.33
75786;DHT22;64402;44.708;37.644;2023-02-23T14:49:05;6.13;41.74
75786;DHT22;64402;44.708;37.644;2023-02-23T14:51:53;4.87;45.02
75786;DHT22;64402;44.708;37.644;2023-02-23T14:56:51;4.06;48.14
75786;DHT22;64402;44.708;37.644;2023-02-23T14:59:20;3.76;49.74
75786;DHT22;64402;44.708;37.644;2023-02-23T15:01:47;3.34;50.52
75786;DHT22;64402;44.708;37.644;2023-02-23T15:04:17;3.05;52.08
75786;DHT22;64402;44.708;37.644;2023-02-23T15:06:45;2.69;52.88
75786;DHT22;64402;44.708;37.644;2023-02-23T15:09:43;2.39;52.24
75786;DHT22;64402;44.708;37.644;2023-02-23T15:12:23;2.14;53.02
75786;DHT22;64402;44.708;37.644;2023-02-23T15:14:57;2.00;54.96
75786;DHT22;64402;44.708;37.644;2023-02-23T15:17:25;1.70;54.84
75786;DHT22;64402;44.708;37.644;2023-02-23T15:19:54;1.58;54.88
75786;DHT22;64402;44.708;37.644;2023-02-23T15:22:33;1.43;55.72
75786;DHT22;64402;44.708;37.644;2023-02-23T15:25:05;1.19;56.53
75786;DHT22;64402;44.708;37.644;2023-02-23T15:27:40;1.04;57.14
75786;DHT22;64402;44.708;37.644;2023-02-23T15:30:28;0.91;57.85
75786;DHT22;64402;44.708;37.644;2023-02-23T15:33:10;0.83;57.30
75786;DHT22;64402;44.708;37.644;2023-02-23T15:35:49;0.72;57.83
75786;DHT22;64402;44.708;37.644;2023-02-23T15:38:23;0.60;58.85
75786;DHT22;64402;44.708;37.644;2023-02-23T15:40:54;0.55;58.27
75786;DHT22;64402;44.708;37.644;2023-02-23T15:43:21;0.50;59.90
75786;DHT22;64402;44.708;37.644;2023-02-23T15:45:51;0.44;60.62
75786;DHT22;64402;44.708;37.644;2023-02-23T15:48:24;0.37;59.54
75786;DHT22;64402;44.708;37.644;2023-02-23T15:50:53;0.33;61.70
75786;DHT22;64402;44.708;37.644;2023-02-23T15:55:54;0.19;61.42
75786;DHT22;64402;44.708;37.644;2023-02-23T15:58:24;0.12;60.81
75786;DHT22;64402;44.708;37.644;2023-02-23T16:01:15;0.04;62.85
75786;DHT22;64402;44.708;37.644;2023-02-23T16:03:53;-0.02;62.47
75786;DHT22;64402;44.708;37.644;2023-02-23T16:06:31;-0.11;62.54
75786;DHT22;64402;44.708;37.644;2023-02-23T16:08:59;-0.15;62.29
75786;DHT22;64402;44.708;37.644;2023-02-23T16:11:34;-0.24;63.71
75786;DHT22;64402;44.708;37.644;2023-02-23T16:14:02;-0.34;63.81
75786;DHT22;64402;44.708;37.644;2023-02-23T16:16:33;-0.32;64.79
75786;DHT22;64402;44.708;37.644;2023-02-23T16:19:01;-0.35;63.02
75786;DHT22;64402;44.708;37.644;2023-02-23T16:21:30;-0.37;64.58
75786;DHT22;64402;44.708;37.644;2023-02-23T16:23:58;-0.40;63.73
75786;DHT22;64402;44.708;37.644;2023-02-23T16:26:34;-0.44;63.18
75786;DHT22;64402;44.708;37.644;2023-02-23T16:29:03;-0.47;65.91
75786;DHT22;64402;44.708;37.644;2023-02-23T16:31:44;-0.53;64.65
75786;DHT22;64402;44.708;37.644;2023-02-23T16:34:25;-0.60;64.26
75786;DHT22;64402;44.708;37.644;2023-02-23T16:37:03;-0.66;64.74
75786;DHT22;64402;44.708;37.644;2023-02-23T16:39:40;-0.75;65.44
75786;DHT22;64402;44.708;37.644;2023-02-23T16:42:32;-0.83;64.56
75786;DHT22;64402;44.708;37.644;2023-02-23T16:44:58;-0.90;64.40
75786;DHT22;64402;44.708;37.644;2023-02-23T16:47:34;-0.99;65.38
75786;DHT22;64402;44.708;37.644;2023-02-23T16:52:44;-1.08;64.95
75786;DHT22;64402;44.708;37.644;2023-02-23T16:55:14;-1.08;65.21
75786;DHT22;64402;44.708;37.644;2023-02-23T16:57:47;-1.13;65.21
75786;DHT22;64402;44.708;37.644;2023-02-23T17:00:30;-1.15;65.95
75786;DHT22;64402;44.708;37.644;2023-02-23T17:02:58;-1.23;64.73
75786;DHT22;64402;44.708;37.644;2023-02-23T17:05:26;-1.28;65.83
75786;DHT22;64402;44.708;37.644;2023-02-23T17:07:53;-1.35;65.76
75786;DHT22;64402;44.708;37.644;2023-02-23T17:10:22;-1.42;65.85
75786;DHT22;64402;44.708;37.644;2023-02-23T17:15:23;-1.47;66.90
75786;DHT22;64402;44.708;37.644;2023-02-23T17:17:52;-1.50;67.84
75786;DHT22;64402;44.708;37.644;2023-02-23T17:20:24;-1.61;66.91
75786;DHT22;64402;44.708;37.644;2023-02-23T17:22:53;-1.70;67.70
75786;DHT22;64402;44.708;37.644;2023-02-23T17:25:20;-1.78;68.33
75786;DHT22;64402;44.708;37.644;2023-02-23T17:27:52;-1.88;67.68
75786;DHT22;64402;44.708;37.644;2023-02-23T17:30:19;-1.93;67.27
75786;DHT22;64402;44.708;37.644;2023-02-23T17:32:45;-1.93;69.52
75786;DHT22;64402;44.708;37.644;2023-02-23T17:35:12;-1.93;67.43
75786;DHT22;64402;44.708;37.644;2023-02-23T17:37:38;-1.95;67.33
75786;DHT22;64402;44.708;37.644;2023-02-23T17:40:10;-2.00;68.62
75786;DHT22;64402;44.708;37.644;2023-02-23T17:42:36;-2.02;68.30
75786;DHT22;64402;44.708;37.644;2023-02-23T17:45:05;-2.07;67.03
75786;DHT22;64402;44.708;37.644;2023-02-23T17:47:32;-2.17;67.96
75786;DHT22;64402;44.708;37.644;2023-02-23T17:49:59;-2.19;68.33
75786;DHT22;64402;44.708;37.644;2023-02-23T17:52:26;-2.23;68.93
75786;DHT22;64402;44.708;37.644;2023-02-23T17:54:53;-2.27;68.03
75786;DHT22;64402;44.708;37.644;2023-02-23T17:57:21;-2.30;68.50
75786;DHT22;64402;44.708;37.644;2023-02-23T17:59:47;-2.32;68.25
75786;DHT22;64402;44.708;37.644;2023-02-23T18:02:15;-2.34;68.95
75786;DHT22;64402;44.708;37.644;2023-02-23T18:04:43;-2.35;68.37
75786;DHT22;64402;44.708;37.644;2023-02-23T18:07:09;-2.36;69.36